Jackson, Missouri
Current Conditions -  °F | °C
As of 1:05 PM on Sunday 23 Nov 2014 (Local Time) from KCGI Reporting Station
Light Rain Light Rain  
Wind Chill: 13°   Ceiling: 800
Heat Index: 13°   Visibility: 4mi
Dew Point: 13°   Wind: 14mph
Humidity: 97%   Direction: 130°SE
Pressure: 29.47"   Gusts: NA
Location:  37.38°N, 89.67°W
Report Text: KCGI 231905Z 13012KT 4SM -RA BR BKN008 OVC024 13/13 A2947 RMK AO2 P0002 T01330128
Loading
Personal Weather Stations






























Interactive Weather Map New forecast layout! Learn more

10-Day Weather Forecast

Advertisements
Track Severe Weather on mobile